Palmdale, CA (93551)

3:37 AM PDT on March 26, 2017 (GMT -0700)
South Side | | Change Station

Elev 3507 ft 34.61 °N, 118.30 °W | Updated 2 minutes ago

Clear
Clear
40.8 °F
Feels Like 40.8 °F
N
1.2
Wind Variable Wind from SE
Gusts 2.2 mph

Today
High -- | Low -- °F
--% Chance of Precip.
Yesterday
High -- | Low -- °F
Precip. -- in
Pressure 30.00 in
Visibility 10.0 miles
Clouds Clear
Dew Point 34.8 °F
Humidity 79%
Rainfall 0.00 in
Snow Depth Not available.
6:47 AM 7:09 PM
Waning Crescent, 4% visible
METAR KPMD 260953Z AUTO 21005KT 10SM CLR 07/03 A3002 RMK AO2 SLP158 T00670033
Pressure 30.00 in
Visibility 10.0 miles
Clouds Clear
Dew Point 34.8 °F
Humidity 79%
Rainfall 0.00 in
Snow Depth Not available.
6:47 AM 7:09 PM
Waning Crescent, 4% visible
METAR KPMD 260953Z AUTO 21005KT 10SM CLR 07/03 A3002 RMK AO2 SLP158 T00670033

Get Severe Weather Alerts

Thanks for signing up!

Be on the lookout for a verification email in your inbox.

You'll start receiving the daily forecast at 8 AM.

×

10-Day Weather Forecast

Almanac

Astronomy

Mar. 26, 2017 Rise Set
Actual Time
Civil Twilight
Nautical Twilight
Astronomical Twilight
Moon
Length of Visible Light
Length of Day
Tomorrow will be .
, % of the Moon is Illuminated

Today's Extremes

State Highs State Lows

Community

WunderPhotos

Upload Photos

1,962,540 photos uploaded!

WunderBlog® & News

Nearby

Air Quality

  Air Quality AQ Index Pollutant
Not available.

Snow Depth

Station Depth Elevation

Earthquake Activity

City Distance Mag. Time & Date
Minimum magnitude displayed is 2.5.

Earthquake Activity

City Distance Mag. Time & Date
Minimum magnitude displayed is 2.5.

Coastal Water Temperatures

Place Temperature

Stations

Nearby Weather Stations

Station Location Temp. Windchill Dew Point Humidity Wind Precip. Elev Updated Type
                   

Watches & Warnings

There are currently no watches in effect.